sensor_id;sensor_type;location;lat;lon;timestamp;P1;durP1;ratioP1;P2;durP2;ratioP2
8777;SDS011;4425;50.872;4.712;2023-04-15T00:00:09;5.63;;;3.90;;
8777;SDS011;4425;50.872;4.712;2023-04-15T00:02:38;4.32;;;3.90;;
8777;SDS011;4425;50.872;4.712;2023-04-15T00:05:05;5.40;;;4.18;;
8777;SDS011;4425;50.872;4.712;2023-04-15T00:07:32;5.07;;;4.18;;
8777;SDS011;4425;50.872;4.712;2023-04-15T00:09:59;5.75;;;4.50;;
8777;SDS011;4425;50.872;4.712;2023-04-15T00:12:26;5.80;;;4.30;;
8777;SDS011;4425;50.872;4.712;2023-04-15T00:14:54;6.05;;;4.30;;
8777;SDS011;4425;50.872;4.712;2023-04-15T00:17:23;5.20;;;4.03;;
8777;SDS011;4425;50.872;4.712;2023-04-15T00:19:52;7.63;;;4.80;;
8777;SDS011;4425;50.872;4.712;2023-04-15T00:22:19;4.93;;;4.28;;
8777;SDS011;4425;50.872;4.712;2023-04-15T00:24:46;5.28;;;4.40;;
8777;SDS011;4425;50.872;4.712;2023-04-15T00:27:14;6.57;;;4.10;;
8777;SDS011;4425;50.872;4.712;2023-04-15T00:29:40;6.00;;;4.38;;
8777;SDS011;4425;50.872;4.712;2023-04-15T00:32:07;8.37;;;4.80;;
8777;SDS011;4425;50.872;4.712;2023-04-15T00:34:34;6.37;;;4.47;;
8777;SDS011;4425;50.872;4.712;2023-04-15T00:37:03;5.65;;;4.63;;
8777;SDS011;4425;50.872;4.712;2023-04-15T00:39:30;5.00;;;4.40;;
8777;SDS011;4425;50.872;4.712;2023-04-15T00:41:57;6.53;;;4.70;;
8777;SDS011;4425;50.872;4.712;2023-04-15T00:44:24;7.35;;;4.57;;
8777;SDS011;4425;50.872;4.712;2023-04-15T00:46:51;5.82;;;4.32;;
8777;SDS011;4425;50.872;4.712;2023-04-15T00:49:19;6.13;;;4.50;;
8777;SDS011;4425;50.872;4.712;2023-04-15T00:51:46;5.60;;;4.32;;
8777;SDS011;4425;50.872;4.712;2023-04-15T00:54:14;6.10;;;4.32;;
8777;SDS011;4425;50.872;4.712;2023-04-15T00:56:42;6.85;;;4.50;;
8777;SDS011;4425;50.872;4.712;2023-04-15T00:59:09;6.60;;;4.43;;
8777;SDS011;4425;50.872;4.712;2023-04-15T01:01:36;5.88;;;4.40;;
8777;SDS011;4425;50.872;4.712;2023-04-15T01:04:03;8.33;;;4.93;;
8777;SDS011;4425;50.872;4.712;2023-04-15T01:06:31;5.63;;;4.50;;
8777;SDS011;4425;50.872;4.712;2023-04-15T01:08:58;5.20;;;4.55;;
8777;SDS011;4425;50.872;4.712;2023-04-15T01:11:27;7.20;;;4.75;;
8777;SDS011;4425;50.872;4.712;2023-04-15T01:13:55;5.15;;;4.65;;
8777;SDS011;4425;50.872;4.712;2023-04-15T01:16:24;6.78;;;4.60;;
8777;SDS011;4425;50.872;4.712;2023-04-15T01:18:52;5.20;;;4.70;;
8777;SDS011;4425;50.872;4.712;2023-04-15T01:21:20;5.55;;;4.70;;
8777;SDS011;4425;50.872;4.712;2023-04-15T01:23:47;6.55;;;4.90;;
8777;SDS011;4425;50.872;4.712;2023-04-15T01:26:17;5.72;;;4.43;;
8777;SDS011;4425;50.872;4.712;2023-04-15T01:28:45;5.10;;;4.50;;
8777;SDS011;4425;50.872;4.712;2023-04-15T01:31:13;5.93;;;4.17;;
8777;SDS011;4425;50.872;4.712;2023-04-15T01:33:43;5.90;;;4.60;;
8777;SDS011;4425;50.872;4.712;2023-04-15T01:36:09;5.15;;;4.60;;
8777;SDS011;4425;50.872;4.712;2023-04-15T01:38:36;5.72;;;4.25;;
8777;SDS011;4425;50.872;4.712;2023-04-15T01:41:04;4.70;;;4.30;;
8777;SDS011;4425;50.872;4.712;2023-04-15T01:43:33;6.85;;;4.70;;
8777;SDS011;4425;50.872;4.712;2023-04-15T01:46:01;7.90;;;4.80;;
8777;SDS011;4425;50.872;4.712;2023-04-15T01:48:28;5.60;;;4.95;;
8777;SDS011;4425;50.872;4.712;2023-04-15T01:50:57;6.20;;;4.70;;
8777;SDS011;4425;50.872;4.712;2023-04-15T01:53:24;5.40;;;4.90;;
8777;SDS011;4425;50.872;4.712;2023-04-15T01:55:52;5.93;;;4.77;;
8777;SDS011;4425;50.872;4.712;2023-04-15T01:58:19;6.43;;;4.97;;
8777;SDS011;4425;50.872;4.712;2023-04-15T02:00:48;5.30;;;4.80;;
8777;SDS011;4425;50.872;4.712;2023-04-15T02:03:15;6.10;;;4.93;;
8777;SDS011;4425;50.872;4.712;2023-04-15T02:05:42;5.35;;;4.85;;
8777;SDS011;4425;50.872;4.712;2023-04-15T02:08:09;5.40;;;4.70;;
8777;SDS011;4425;50.872;4.712;2023-04-15T02:10:36;5.30;;;4.80;;
8777;SDS011;4425;50.872;4.712;2023-04-15T02:13:03;4.78;;;4.35;;
8777;SDS011;4425;50.872;4.712;2023-04-15T02:15:30;7.00;;;4.90;;
8777;SDS011;4425;50.872;4.712;2023-04-15T02:17:59;5.80;;;4.80;;
8777;SDS011;4425;50.872;4.712;2023-04-15T02:20:26;5.32;;;4.82;;
8777;SDS011;4425;50.872;4.712;2023-04-15T02:22:54;6.53;;;5.13;;
8777;SDS011;4425;50.872;4.712;2023-04-15T02:25:21;5.72;;;4.75;;
8777;SDS011;4425;50.872;4.712;2023-04-15T02:27:49;8.93;;;4.88;;
8777;SDS011;4425;50.872;4.712;2023-04-15T02:30:16;6.10;;;4.80;;
8777;SDS011;4425;50.872;4.712;2023-04-15T02:32:43;6.60;;;4.80;;
8777;SDS011;4425;50.872;4.712;2023-04-15T02:35:12;6.55;;;4.90;;
8777;SDS011;4425;50.872;4.712;2023-04-15T02:37:39;6.53;;;4.68;;
8777;SDS011;4425;50.872;4.712;2023-04-15T02:40:08;6.50;;;4.82;;
8777;SDS011;4425;50.872;4.712;2023-04-15T02:42:36;6.95;;;4.88;;
8777;SDS011;4425;50.872;4.712;2023-04-15T02:45:04;5.05;;;4.65;;
8777;SDS011;4425;50.872;4.712;2023-04-15T02:47:33;5.40;;;4.70;;
8777;SDS011;4425;50.872;4.712;2023-04-15T02:50:00;6.68;;;4.65;;
8777;SDS011;4425;50.872;4.712;2023-04-15T02:52:29;5.55;;;4.53;;
8777;SDS011;4425;50.872;4.712;2023-04-15T02:54:56;5.67;;;4.43;;
8777;SDS011;4425;50.872;4.712;2023-04-15T02:57:25;5.82;;;4.82;;
8777;SDS011;4425;50.872;4.712;2023-04-15T02:59:53;7.13;;;4.90;;
8777;SDS011;4425;50.872;4.712;2023-04-15T03:02:20;5.97;;;4.43;;
8777;SDS011;4425;50.872;4.712;2023-04-15T03:04:47;8.07;;;5.10;;
8777;SDS011;4425;50.872;4.712;2023-04-15T03:07:14;5.03;;;4.53;;
8777;SDS011;4425;50.872;4.712;2023-04-15T03:09:44;5.97;;;4.53;;
8777;SDS011;4425;50.872;4.712;2023-04-15T03:12:12;6.18;;;4.70;;
8777;SDS011;4425;50.872;4.712;2023-04-15T03:14:39;7.70;;;5.03;;
8777;SDS011;4425;50.872;4.712;2023-04-15T03:17:06;5.20;;;4.57;;
8777;SDS011;4425;50.872;4.712;2023-04-15T03:19:33;6.05;;;4.78;;
8777;SDS011;4425;50.872;4.712;2023-04-15T03:22:01;6.90;;;5.00;;
8777;SDS011;4425;50.872;4.712;2023-04-15T03:24:28;5.82;;;5.00;;
8777;SDS011;4425;50.872;4.712;2023-04-15T03:26:58;6.20;;;4.45;;
8777;SDS011;4425;50.872;4.712;2023-04-15T03:29:26;6.00;;;4.65;;
8777;SDS011;4425;50.872;4.712;2023-04-15T03:31:53;5.30;;;4.60;;
8777;SDS011;4425;50.872;4.712;2023-04-15T03:34:20;6.72;;;4.97;;
8777;SDS011;4425;50.872;4.712;2023-04-15T03:36:49;6.65;;;5.20;;
8777;SDS011;4425;50.872;4.712;2023-04-15T03:39:16;6.38;;;5.35;;
8777;SDS011;4425;50.872;4.712;2023-04-15T03:41:43;7.20;;;5.05;;
8777;SDS011;4425;50.872;4.712;2023-04-15T03:44:12;5.15;;;4.65;;
8777;SDS011;4425;50.872;4.712;2023-04-15T03:46:40;6.65;;;4.88;;
8777;SDS011;4425;50.872;4.712;2023-04-15T03:49:07;5.85;;;4.70;;
8777;SDS011;4425;50.872;4.712;2023-04-15T03:51:34;5.68;;;4.70;;
8777;SDS011;4425;50.872;4.712;2023-04-15T03:54:01;6.32;;;4.85;;
8777;SDS011;4425;50.872;4.712;2023-04-15T03:56:27;5.35;;;4.20;;
8777;SDS011;4425;50.872;4.712;2023-04-15T03:58:54;6.93;;;5.20;;
8777;SDS011;4425;50.872;4.712;2023-04-15T04:01:23;5.63;;;5.03;;
8777;SDS011;4425;50.872;4.712;2023-04-15T04:03:50;8.82;;;5.30;;
8777;SDS011;4425;50.872;4.712;2023-04-15T04:06:16;5.50;;;4.85;;
8777;SDS011;4425;50.872;4.712;2023-04-15T04:08:45;6.03;;;4.90;;
8777;SDS011;4425;50.872;4.712;2023-04-15T04:11:12;6.38;;;5.00;;
8777;SDS011;4425;50.872;4.712;2023-04-15T04:13:41;6.55;;;5.28;;
8777;SDS011;4425;50.872;4.712;2023-04-15T04:16:08;6.60;;;5.30;;
8777;SDS011;4425;50.872;4.712;2023-04-15T04:18:36;6.28;;;5.40;;
8777;SDS011;4425;50.872;4.712;2023-04-15T04:21:03;5.90;;;5.30;;
8777;SDS011;4425;50.872;4.712;2023-04-15T04:23:30;6.18;;;5.50;;
8777;SDS011;4425;50.872;4.712;2023-04-15T04:25:58;6.63;;;5.50;;
8777;SDS011;4425;50.872;4.712;2023-04-15T04:28:25;7.43;;;5.40;;
8777;SDS011;4425;50.872;4.712;2023-04-15T04:30:52;5.70;;;5.10;;
8777;SDS011;4425;50.872;4.712;2023-04-15T04:33:20;5.85;;;5.15;;
8777;SDS011;4425;50.872;4.712;2023-04-15T04:35:48;6.40;;;5.40;;
8777;SDS011;4425;50.872;4.712;2023-04-15T04:38:15;8.32;;;5.88;;
8777;SDS011;4425;50.872;4.712;2023-04-15T04:40:42;7.55;;;5.63;;
8777;SDS011;4425;50.872;4.712;2023-04-15T04:43:09;9.50;;;5.68;;
8777;SDS011;4425;50.872;4.712;2023-04-15T04:45:36;6.95;;;5.65;;
8777;SDS011;4425;50.872;4.712;2023-04-15T04:48:03;7.13;;;6.25;;
8777;SDS011;4425;50.872;4.712;2023-04-15T04:50:32;7.97;;;6.32;;
8777;SDS011;4425;50.872;4.712;2023-04-15T04:53:01;7.10;;;6.40;;
8777;SDS011;4425;50.872;4.712;2023-04-15T04:55:28;7.43;;;6.53;;
8777;SDS011;4425;50.872;4.712;2023-04-15T04:57:56;6.50;;;5.90;;
8777;SDS011;4425;50.872;4.712;2023-04-15T05:00:23;9.25;;;6.22;;
8777;SDS011;4425;50.872;4.712;2023-04-15T05:02:50;10.27;;;6.20;;
8777;SDS011;4425;50.872;4.712;2023-04-15T05:05:17;9.52;;;5.88;;
8777;SDS011;4425;50.872;4.712;2023-04-15T05:07:44;9.02;;;5.72;;
8777;SDS011;4425;50.872;4.712;2023-04-15T05:10:12;9.23;;;6.13;;
8777;SDS011;4425;50.872;4.712;2023-04-15T05:12:41;9.48;;;6.35;;
8777;SDS011;4425;50.872;4.712;2023-04-15T05:15:09;7.28;;;5.75;;
8777;SDS011;4425;50.872;4.712;2023-04-15T05:17:36;6.70;;;5.80;;
8777;SDS011;4425;50.872;4.712;2023-04-15T05:20:03;8.75;;;6.03;;
8777;SDS011;4425;50.872;4.712;2023-04-15T05:22:32;8.73;;;5.50;;
8777;SDS011;4425;50.872;4.712;2023-04-15T05:24:59;6.30;;;5.20;;
8777;SDS011;4425;50.872;4.712;2023-04-15T05:27:27;7.82;;;5.78;;
8777;SDS011;4425;50.872;4.712;2023-04-15T05:29:54;6.20;;;5.60;;
8777;SDS011;4425;50.872;4.712;2023-04-15T05:32:21;10.03;;;5.67;;
8777;SDS011;4425;50.872;4.712;2023-04-15T05:34:48;8.10;;;6.00;;
8777;SDS011;4425;50.872;4.712;2023-04-15T05:37:16;8.50;;;6.07;;
8777;SDS011;4425;50.872;4.712;2023-04-15T05:39:45;10.70;;;6.10;;
8777;SDS011;4425;50.872;4.712;2023-04-15T05:42:12;9.68;;;6.10;;
8777;SDS011;4425;50.872;4.712;2023-04-15T05:44:40;11.17;;;6.20;;
8777;SDS011;4425;50.872;4.712;2023-04-15T05:47:08;9.15;;;5.65;;
8777;SDS011;4425;50.872;4.712;2023-04-15T05:49:35;8.55;;;5.95;;
8777;SDS011;4425;50.872;4.712;2023-04-15T05:52:02;8.35;;;6.00;;
8777;SDS011;4425;50.872;4.712;2023-04-15T05:54:29;7.90;;;6.28;;
8777;SDS011;4425;50.872;4.712;2023-04-15T05:56:56;10.17;;;6.50;;
8777;SDS011;4425;50.872;4.712;2023-04-15T05:59:23;8.48;;;6.63;;
8777;SDS011;4425;50.872;4.712;2023-04-15T06:01:51;8.25;;;6.00;;
8777;SDS011;4425;50.872;4.712;2023-04-15T06:04:18;8.90;;;6.00;;
8777;SDS011;4425;50.872;4.712;2023-04-15T06:06:45;9.53;;;6.63;;
8777;SDS011;4425;50.872;4.712;2023-04-15T06:09:12;9.07;;;6.20;;
8777;SDS011;4425;50.872;4.712;2023-04-15T06:11:40;8.60;;;6.25;;
8777;SDS011;4425;50.872;4.712;2023-04-15T06:14:06;9.45;;;6.60;;
8777;SDS011;4425;50.872;4.712;2023-04-15T06:16:33;9.57;;;6.90;;
8777;SDS011;4425;50.872;4.712;2023-04-15T06:19:03;8.15;;;6.60;;
8777;SDS011;4425;50.872;4.712;2023-04-15T06:21:30;9.70;;;7.10;;
8777;SDS011;4425;50.872;4.712;2023-04-15T06:23:57;8.88;;;6.70;;
8777;SDS011;4425;50.872;4.712;2023-04-15T06:26:25;10.20;;;6.85;;
8777;SDS011;4425;50.872;4.712;2023-04-15T06:28:52;9.05;;;6.93;;
8777;SDS011;4425;50.872;4.712;2023-04-15T06:31:19;9.10;;;6.72;;
8777;SDS011;4425;50.872;4.712;2023-04-15T06:33:46;10.55;;;6.75;;
8777;SDS011;4425;50.872;4.712;2023-04-15T06:36:15;10.32;;;7.07;;
8777;SDS011;4425;50.872;4.712;2023-04-15T06:38:41;12.00;;;7.20;;
8777;SDS011;4425;50.872;4.712;2023-04-15T06:41:08;12.98;;;7.30;;
8777;SDS011;4425;50.872;4.712;2023-04-15T06:43:35;10.65;;;7.10;;
8777;SDS011;4425;50.872;4.712;2023-04-15T06:46:03;11.88;;;7.63;;
8777;SDS011;4425;50.872;4.712;2023-04-15T06:48:30;12.98;;;7.80;;
8777;SDS011;4425;50.872;4.712;2023-04-15T06:50:57;10.90;;;7.53;;
8777;SDS011;4425;50.872;4.712;2023-04-15T06:53:26;9.15;;;7.30;;
8777;SDS011;4425;50.872;4.712;2023-04-15T06:55:54;9.50;;;7.13;;
8777;SDS011;4425;50.872;4.712;2023-04-15T06:58:21;9.75;;;7.30;;
8777;SDS011;4425;50.872;4.712;2023-04-15T07:00:48;13.18;;;7.25;;
8777;SDS011;4425;50.872;4.712;2023-04-15T07:03:15;12.57;;;6.90;;
8777;SDS011;4425;50.872;4.712;2023-04-15T07:05:42;9.73;;;6.80;;
8777;SDS011;4425;50.872;4.712;2023-04-15T07:08:09;11.50;;;6.75;;
8777;SDS011;4425;50.872;4.712;2023-04-15T07:10:37;10.35;;;7.60;;
8777;SDS011;4425;50.872;4.712;2023-04-15T07:13:04;10.43;;;7.13;;
8777;SDS011;4425;50.872;4.712;2023-04-15T07:15:32;12.82;;;7.38;;
8777;SDS011;4425;50.872;4.712;2023-04-15T07:17:59;11.05;;;7.25;;
8777;SDS011;4425;50.872;4.712;2023-04-15T07:20:26;11.40;;;6.63;;
8777;SDS011;4425;50.872;4.712;2023-04-15T07:22:54;11.20;;;6.63;;
8777;SDS011;4425;50.872;4.712;2023-04-15T07:25:21;8.50;;;6.25;;
8777;SDS011;4425;50.872;4.712;2023-04-15T07:27:49;9.88;;;6.63;;
8777;SDS011;4425;50.872;4.712;2023-04-15T07:30:17;9.02;;;6.30;;
8777;SDS011;4425;50.872;4.712;2023-04-15T07:32:44;8.10;;;6.05;;
8777;SDS011;4425;50.872;4.712;2023-04-15T07:35:11;8.00;;;6.30;;
8777;SDS011;4425;50.872;4.712;2023-04-15T07:37:38;10.25;;;6.32;;
8777;SDS011;4425;50.872;4.712;2023-04-15T07:40:08;11.85;;;6.45;;
8777;SDS011;4425;50.872;4.712;2023-04-15T07:42:38;10.52;;;6.22;;
8777;SDS011;4425;50.872;4.712;2023-04-15T07:45:08;9.48;;;6.47;;
8777;SDS011;4425;50.872;4.712;2023-04-15T07:47:35;10.07;;;6.40;;
8777;SDS011;4425;50.872;4.712;2023-04-15T07:50:03;7.38;;;6.20;;
8777;SDS011;4425;50.872;4.712;2023-04-15T07:52:30;9.35;;;6.32;;
8777;SDS011;4425;50.872;4.712;2023-04-15T07:55:03;8.68;;;6.07;;
8777;SDS011;4425;50.872;4.712;2023-04-15T07:57:31;8.65;;;5.97;;
8777;SDS011;4425;50.872;4.712;2023-04-15T07:59:58;6.85;;;5.68;;
8777;SDS011;4425;50.872;4.712;2023-04-15T08:02:28;8.37;;;5.93;;
8777;SDS011;4425;50.872;4.712;2023-04-15T08:04:55;7.57;;;5.68;;
8777;SDS011;4425;50.872;4.712;2023-04-15T08:07:22;8.93;;;6.05;;
8777;SDS011;4425;50.872;4.712;2023-04-15T08:09:51;8.68;;;5.80;;
8777;SDS011;4425;50.872;4.712;2023-04-15T08:12:18;8.05;;;5.40;;
8777;SDS011;4425;50.872;4.712;2023-04-15T08:14:45;7.63;;;5.38;;
8777;SDS011;4425;50.872;4.712;2023-04-15T08:17:12;8.02;;;5.78;;
8777;SDS011;4425;50.872;4.712;2023-04-15T08:19:41;6.78;;;5.75;;
8777;SDS011;4425;50.872;4.712;2023-04-15T08:22:08;8.10;;;5.68;;
8777;SDS011;4425;50.872;4.712;2023-04-15T08:24:36;7.90;;;5.93;;
8777;SDS011;4425;50.872;4.712;2023-04-15T08:27:04;9.25;;;5.50;;
8777;SDS011;4425;50.872;4.712;2023-04-15T08:29:32;9.18;;;6.30;;
8777;SDS011;4425;50.872;4.712;2023-04-15T08:31:59;8.73;;;6.25;;
8777;SDS011;4425;50.872;4.712;2023-04-15T08:34:28;7.00;;;5.32;;
8777;SDS011;4425;50.872;4.712;2023-04-15T08:36:56;7.25;;;6.05;;
8777;SDS011;4425;50.872;4.712;2023-04-15T08:39:23;7.85;;;6.15;;
8777;SDS011;4425;50.872;4.712;2023-04-15T08:41:52;8.43;;;6.40;;
8777;SDS011;4425;50.872;4.712;2023-04-15T08:44:24;9.65;;;6.35;;
8777;SDS011;4425;50.872;4.712;2023-04-15T08:46:54;8.77;;;6.20;;
8777;SDS011;4425;50.872;4.712;2023-04-15T08:49:22;9.63;;;6.83;;
8777;SDS011;4425;50.872;4.712;2023-04-15T08:51:52;8.13;;;6.40;;
8777;SDS011;4425;50.872;4.712;2023-04-15T08:54:23;10.55;;;6.93;;
8777;SDS011;4425;50.872;4.712;2023-04-15T08:56:51;9.43;;;6.78;;
8777;SDS011;4425;50.872;4.712;2023-04-15T08:59:18;7.95;;;7.10;;
8777;SDS011;4425;50.872;4.712;2023-04-15T09:01:47;8.48;;;7.13;;
8777;SDS011;4425;50.872;4.712;2023-04-15T09:04:14;10.60;;;7.68;;
8777;SDS011;4425;50.872;4.712;2023-04-15T09:06:42;8.43;;;7.53;;
8777;SDS011;4425;50.872;4.712;2023-04-15T09:09:11;8.45;;;7.35;;
8777;SDS011;4425;50.872;4.712;2023-04-15T09:11:40;8.65;;;7.82;;
8777;SDS011;4425;50.872;4.712;2023-04-15T09:14:07;11.15;;;8.27;;
8777;SDS011;4425;50.872;4.712;2023-04-15T09:19:23;9.52;;;8.57;;
8777;SDS011;4425;50.872;4.712;2023-04-15T09:21:52;10.50;;;8.50;;
8777;SDS011;4425;50.872;4.712;2023-04-15T09:24:20;9.35;;;8.38;;
8777;SDS011;4425;50.872;4.712;2023-04-15T09:26:52;9.65;;;7.88;;
8777;SDS011;4425;50.872;4.712;2023-04-15T09:29:20;9.20;;;7.80;;
8777;SDS011;4425;50.872;4.712;2023-04-15T09:31:50;9.18;;;7.65;;
8777;SDS011;4425;50.872;4.712;2023-04-15T09:34:17;8.13;;;7.20;;
8777;SDS011;4425;50.872;4.712;2023-04-15T09:36:55;8.25;;;7.15;;
8777;SDS011;4425;50.872;4.712;2023-04-15T09:39:23;8.10;;;6.97;;
8777;SDS011;4425;50.872;4.712;2023-04-15T09:42:06;9.70;;;7.10;;
8777;SDS011;4425;50.872;4.712;2023-04-15T09:44:36;7.93;;;7.13;;
8777;SDS011;4425;50.872;4.712;2023-04-15T09:47:03;9.38;;;7.22;;
8777;SDS011;4425;50.872;4.712;2023-04-15T09:49:31;7.37;;;6.77;;
8777;SDS011;4425;50.872;4.712;2023-04-15T09:51:59;7.80;;;7.03;;
8777;SDS011;4425;50.872;4.712;2023-04-15T09:54:33;7.22;;;6.40;;
8777;SDS011;4425;50.872;4.712;2023-04-15T09:57:07;7.13;;;6.00;;
8777;SDS011;4425;50.872;4.712;2023-04-15T09:59:36;6.28;;;5.50;;
8777;SDS011;4425;50.872;4.712;2023-04-15T10:02:03;6.40;;;5.80;;
8777;SDS011;4425;50.872;4.712;2023-04-15T10:04:32;5.60;;;5.00;;
8777;SDS011;4425;50.872;4.712;2023-04-15T10:07:02;7.57;;;5.60;;
8777;SDS011;4425;50.872;4.712;2023-04-15T10:09:31;5.57;;;5.07;;
8777;SDS011;4425;50.872;4.712;2023-04-15T10:11:58;5.70;;;5.13;;
8777;SDS011;4425;50.872;4.712;2023-04-15T10:14:28;5.55;;;5.05;;
8777;SDS011;4425;50.872;4.712;2023-04-15T10:17:02;5.40;;;4.95;;
8777;SDS011;4425;50.872;4.712;2023-04-15T10:19:30;5.32;;;4.93;;
8777;SDS011;4425;50.872;4.712;2023-04-15T10:21:59;5.43;;;4.45;;
8777;SDS011;4425;50.872;4.712;2023-04-15T10:24:48;11.95;;;3.60;;
8777;SDS011;4425;50.872;4.712;2023-04-15T10:27:16;3.80;;;3.50;;
8777;SDS011;4425;50.872;4.712;2023-04-15T10:29:44;4.20;;;3.60;;
8777;SDS011;4425;50.872;4.712;2023-04-15T10:32:12;3.50;;;3.20;;
8777;SDS011;4425;50.872;4.712;2023-04-15T10:34:41;3.40;;;3.20;;
8777;SDS011;4425;50.872;4.712;2023-04-15T10:37:10;4.63;;;3.75;;
8777;SDS011;4425;50.872;4.712;2023-04-15T10:39:38;4.30;;;3.70;;
8777;SDS011;4425;50.872;4.712;2023-04-15T10:42:11;4.90;;;4.40;;
8777;SDS011;4425;50.872;4.712;2023-04-15T10:44:40;4.77;;;4.30;;
8777;SDS011;4425;50.872;4.712;2023-04-15T10:47:11;4.80;;;4.35;;
8777;SDS011;4425;50.872;4.712;2023-04-15T10:49:43;6.73;;;4.00;;
8777;SDS011;4425;50.872;4.712;2023-04-15T10:52:11;3.83;;;3.50;;
8777;SDS011;4425;50.872;4.712;2023-04-15T10:54:41;4.10;;;3.80;;
8777;SDS011;4425;50.872;4.712;2023-04-15T10:57:08;4.38;;;3.95;;
8777;SDS011;4425;50.872;4.712;2023-04-15T11:02:43;4.20;;;3.80;;
8777;SDS011;4425;50.872;4.712;2023-04-15T11:05:11;7.07;;;4.25;;
8777;SDS011;4425;50.872;4.712;2023-04-15T11:07:39;5.47;;;4.97;;
8777;SDS011;4425;50.872;4.712;2023-04-15T11:13:20;5.53;;;5.03;;
8777;SDS011;4425;50.872;4.712;2023-04-15T11:15:56;4.68;;;4.25;;
8777;SDS011;4425;50.872;4.712;2023-04-15T11:18:28;4.70;;;4.30;;
8777;SDS011;4425;50.872;4.712;2023-04-15T11:20:57;3.72;;;3.38;;
8777;SDS011;4425;50.872;4.712;2023-04-15T11:23:26;3.78;;;3.15;;
8777;SDS011;4425;50.872;4.712;2023-04-15T11:25:59;3.53;;;3.22;;
8777;SDS011;4425;50.872;4.712;2023-04-15T11:28:29;3.28;;;3.00;;
8777;SDS011;4425;50.872;4.712;2023-04-15T11:31:02;3.80;;;3.60;;
8777;SDS011;4425;50.872;4.712;2023-04-15T11:33:32;4.18;;;3.78;;
8777;SDS011;4425;50.872;4.712;2023-04-15T11:36:00;3.70;;;3.40;;
8777;SDS011;4425;50.872;4.712;2023-04-15T11:38:28;3.33;;;3.05;;
8777;SDS011;4425;50.872;4.712;2023-04-15T11:40:56;3.22;;;3.03;;
8777;SDS011;4425;50.872;4.712;2023-04-15T11:43:25;3.47;;;3.20;;
8777;SDS011;4425;50.872;4.712;2023-04-15T11:45:54;3.88;;;3.58;;
8777;SDS011;4425;50.872;4.712;2023-04-15T11:48:24;4.18;;;3.88;;
8777;SDS011;4425;50.872;4.712;2023-04-15T11:50:52;3.58;;;3.28;;
8777;SDS011;4425;50.872;4.712;2023-04-15T11:53:21;4.18;;;3.88;;
8777;SDS011;4425;50.872;4.712;2023-04-15T11:55:49;3.70;;;3.40;;
8777;SDS011;4425;50.872;4.712;2023-04-15T11:58:19;3.77;;;3.57;;
8777;SDS011;4425;50.872;4.712;2023-04-15T12:00:48;4.00;;;3.55;;
8777;SDS011;4425;50.872;4.712;2023-04-15T12:03:20;4.18;;;3.80;;
8777;SDS011;4425;50.872;4.712;2023-04-15T12:06:10;3.47;;;3.20;;
8777;SDS011;4425;50.872;4.712;2023-04-15T12:11:36;9.15;;;7.97;;
8777;SDS011;4425;50.872;4.712;2023-04-15T12:14:07;4.20;;;3.35;;
8777;SDS011;4425;50.872;4.712;2023-04-15T12:16:39;4.93;;;3.15;;
8777;SDS011;4425;50.872;4.712;2023-04-15T12:19:10;2.70;;;2.50;;
8777;SDS011;4425;50.872;4.712;2023-04-15T12:21:39;3.30;;;3.10;;
8777;SDS011;4425;50.872;4.712;2023-04-15T12:24:07;3.25;;;3.05;;
8777;SDS011;4425;50.872;4.712;2023-04-15T12:26:36;3.28;;;2.97;;
8777;SDS011;4425;50.872;4.712;2023-04-15T12:29:09;3.25;;;3.05;;
8777;SDS011;4425;50.872;4.712;2023-04-15T12:31:45;3.03;;;2.72;;
8777;SDS011;4425;50.872;4.712;2023-04-15T12:34:16;2.83;;;2.63;;
8777;SDS011;4425;50.872;4.712;2023-04-15T12:36:44;2.95;;;2.70;;
8777;SDS011;4425;50.872;4.712;2023-04-15T12:39:11;2.50;;;2.30;;
8777;SDS011;4425;50.872;4.712;2023-04-15T12:41:38;2.83;;;2.30;;
8777;SDS011;4425;50.872;4.712;2023-04-15T12:44:06;2.78;;;2.58;;
8777;SDS011;4425;50.872;4.712;2023-04-15T12:46:33;2.80;;;2.60;;
8777;SDS011;4425;50.872;4.712;2023-04-15T12:49:00;3.30;;;2.33;;
8777;SDS011;4425;50.872;4.712;2023-04-15T12:51:29;2.30;;;2.20;;
8777;SDS011;4425;50.872;4.712;2023-04-15T12:53:57;2.42;;;1.80;;
8777;SDS011;4425;50.872;4.712;2023-04-15T12:56:24;3.88;;;2.30;;
8777;SDS011;4425;50.872;4.712;2023-04-15T12:58:52;2.50;;;2.20;;
8777;SDS011;4425;50.872;4.712;2023-04-15T13:01:19;2.85;;;2.65;;
8777;SDS011;4425;50.872;4.712;2023-04-15T13:03:46;3.35;;;2.20;;
8777;SDS011;4425;50.872;4.712;2023-04-15T13:06:14;2.53;;;2.33;;
8777;SDS011;4425;50.872;4.712;2023-04-15T13:08:43;2.70;;;2.38;;
8777;SDS011;4425;50.872;4.712;2023-04-15T13:11:10;3.53;;;2.40;;
8777;SDS011;4425;50.872;4.712;2023-04-15T13:13:37;2.73;;;2.40;;
8777;SDS011;4425;50.872;4.712;2023-04-15T13:16:06;3.03;;;2.80;;
8777;SDS011;4425;50.872;4.712;2023-04-15T13:18:33;2.80;;;2.60;;
8777;SDS011;4425;50.872;4.712;2023-04-15T13:21:00;4.75;;;2.78;;
8777;SDS011;4425;50.872;4.712;2023-04-15T13:23:28;2.83;;;2.63;;
8777;SDS011;4425;50.872;4.712;2023-04-15T13:25:56;3.17;;;2.40;;
8777;SDS011;4425;50.872;4.712;2023-04-15T13:28:23;2.40;;;2.20;;
8777;SDS011;4425;50.872;4.712;2023-04-15T13:30:51;2.70;;;2.50;;
8777;SDS011;4425;50.872;4.712;2023-04-15T13:33:19;2.63;;;2.30;;
8777;SDS011;4425;50.872;4.712;2023-04-15T13:35:46;2.45;;;2.25;;
8777;SDS011;4425;50.872;4.712;2023-04-15T13:38:13;2.95;;;2.20;;
8777;SDS011;4425;50.872;4.712;2023-04-15T13:40:40;3.63;;;2.00;;
8777;SDS011;4425;50.872;4.712;2023-04-15T13:43:09;2.47;;;1.90;;
8777;SDS011;4425;50.872;4.712;2023-04-15T13:45:36;3.60;;;2.40;;
8777;SDS011;4425;50.872;4.712;2023-04-15T13:48:03;2.13;;;2.00;;
8777;SDS011;4425;50.872;4.712;2023-04-15T13:50:31;3.15;;;2.28;;
8777;SDS011;4425;50.872;4.712;2023-04-15T13:52:58;2.60;;;2.40;;
8777;SDS011;4425;50.872;4.712;2023-04-15T13:55:25;3.00;;;2.53;;
8777;SDS011;4425;50.872;4.712;2023-04-15T13:57:52;3.83;;;2.50;;
8777;SDS011;4425;50.872;4.712;2023-04-15T14:00:20;3.00;;;2.35;;
8777;SDS011;4425;50.872;4.712;2023-04-15T14:02:47;3.15;;;2.38;;
8777;SDS011;4425;50.872;4.712;2023-04-15T14:05:14;3.10;;;2.63;;
8777;SDS011;4425;50.872;4.712;2023-04-15T14:07:41;3.60;;;2.80;;
8777;SDS011;4425;50.872;4.712;2023-04-15T14:10:08;6.40;;;2.90;;
8777;SDS011;4425;50.872;4.712;2023-04-15T14:12:35;3.55;;;2.88;;
8777;SDS011;4425;50.872;4.712;2023-04-15T14:15:02;3.67;;;3.10;;
8777;SDS011;4425;50.872;4.712;2023-04-15T14:17:32;3.20;;;2.78;;
8777;SDS011;4425;50.872;4.712;2023-04-15T14:19:59;2.72;;;2.50;;
8777;SDS011;4425;50.872;4.712;2023-04-15T14:22:26;4.80;;;3.42;;
8777;SDS011;4425;50.872;4.712;2023-04-15T14:24:53;4.50;;;2.80;;
8777;SDS011;4425;50.872;4.712;2023-04-15T14:27:20;3.60;;;2.60;;
8777;SDS011;4425;50.872;4.712;2023-04-15T14:29:47;2.63;;;2.40;;
8777;SDS011;4425;50.872;4.712;2023-04-15T14:32:14;2.42;;;2.22;;
8777;SDS011;4425;50.872;4.712;2023-04-15T14:34:43;2.30;;;2.10;;
8777;SDS011;4425;50.872;4.712;2023-04-15T14:37:10;2.40;;;2.20;;
8777;SDS011;4425;50.872;4.712;2023-04-15T14:39:37;2.45;;;2.10;;
8777;SDS011;4425;50.872;4.712;2023-04-15T14:42:04;3.03;;;2.20;;
8777;SDS011;4425;50.872;4.712;2023-04-15T14:44:31;3.13;;;2.20;;
8777;SDS011;4425;50.872;4.712;2023-04-15T14:46:58;2.30;;;2.20;;
8777;SDS011;4425;50.872;4.712;2023-04-15T14:49:25;3.22;;;2.30;;
8777;SDS011;4425;50.872;4.712;2023-04-15T14:51:55;2.60;;;2.40;;
8777;SDS011;4425;50.872;4.712;2023-04-15T14:54:24;3.25;;;2.20;;
8777;SDS011;4425;50.872;4.712;2023-04-15T14:56:50;2.22;;;2.03;;
8777;SDS011;4425;50.872;4.712;2023-04-15T14:59:17;2.70;;;2.05;;
8777;SDS011;4425;50.872;4.712;2023-04-15T15:01:44;2.88;;;1.90;;
8777;SDS011;4425;50.872;4.712;2023-04-15T15:04:12;2.38;;;2.10;;
8777;SDS011;4425;50.872;4.712;2023-04-15T15:06:40;2.35;;;2.05;;
8777;SDS011;4425;50.872;4.712;2023-04-15T15:09:08;2.03;;;1.92;;
8777;SDS011;4425;50.872;4.712;2023-04-15T15:11:36;1.80;;;1.70;;
8777;SDS011;4425;50.872;4.712;2023-04-15T15:14:03;2.53;;;1.70;;
8777;SDS011;4425;50.872;4.712;2023-04-15T15:16:30;1.98;;;1.80;;
8777;SDS011;4425;50.872;4.712;2023-04-15T15:18:57;1.55;;;1.45;;
8777;SDS011;4425;50.872;4.712;2023-04-15T15:21:24;2.30;;;1.70;;
8777;SDS011;4425;50.872;4.712;2023-04-15T15:23:51;1.70;;;1.60;;
8777;SDS011;4425;50.872;4.712;2023-04-15T15:26:20;1.95;;;1.77;;
8777;SDS011;4425;50.872;4.712;2023-04-15T15:28:47;2.30;;;1.90;;
8777;SDS011;4425;50.872;4.712;2023-04-15T15:31:14;2.00;;;1.90;;